Time;durP1;ratioP1;P1;durP2;ratioP2;P2;SDS_P1;SDS_P2;PMS_P1;PMS_P2;Temp;Humidity;BMP_temperature;BMP_pressure;BME280_temperature;BME280_humidity;BME280_pressure;Samples;Min_cycle;Max_cycle;Signal;HPM_P1;HPM_P2
2022/08/24 00:02:11;;;;;;;;;;;26.90;80.40;;;;;;5034257;28;19944;-61
2022/08/24 00:04:37;;;;;;;;;;;27.30;80.60;;;;;;5047279;28;19970;-61
2022/08/24 00:07:03;;;;;;;;;;;27.00;80.50;;;;;;5054122;28;19939;-61
2022/08/24 00:09:29;;;;;;;;;;;27.10;80.50;;;;;;5053591;28;19931;-61
2022/08/24 00:11:55;;;;;;;;;;;27.20;81.00;;;;;;5048988;28;19925;-61
2022/08/24 00:14:20;;;;;;;;;;;27.20;80.70;;;;;;5053590;28;19971;-61
2022/08/24 00:16:46;;;;;;;;;;;27.20;80.70;;;;;;5053135;28;19935;-62
2022/08/24 00:19:11;;;;;;;;;;;27.20;80.80;;;;;;5054190;28;20362;-61
2022/08/24 00:21:37;;;;;;;;;;;27.20;80.70;;;;;;5051968;28;19925;-61
2022/08/24 00:24:03;;;;;;;;;;;26.90;80.50;;;;;;5054472;28;19929;-61
2022/08/24 00:26:28;;;;;;;;;;;27.00;80.60;;;;;;5053751;28;19924;-61
2022/08/24 00:28:54;;;;;;;;;;;27.20;80.80;;;;;;5035962;28;19924;-61
2022/08/24 00:31:21;;;;;;;;;;;26.80;80.50;;;;;;5052592;28;19924;-61
2022/08/24 00:33:46;;;;;;;;;;;27.20;80.90;;;;;;5054666;28;20378;-61
2022/08/24 00:36:12;;;;;;;;;;;27.20;80.70;;;;;;5053122;28;19992;-61
2022/08/24 00:38:38;;;;;;;;;;;27.00;80.80;;;;;;5053643;28;19929;-62
2022/08/24 00:41:04;;;;;;;;;;;26.90;80.70;;;;;;5053254;28;20011;-63
2022/08/24 00:43:29;;;;;;;;;;;27.10;80.70;;;;;;5053497;28;19925;-61
2022/08/24 00:46:07;;;;;;;;;;;26.90;80.40;;;;;;5053885;28;19925;-61
2022/08/24 00:48:33;;;;;;;;;;;26.80;79.50;;;;;;5069123;28;20058;-61
2022/08/24 00:51:00;;;;;;;;;;;27.20;81.10;;;;;;5054179;28;19920;-61
2022/08/24 00:53:36;;;;;;;;;;;27.10;81.00;;;;;;5068050;28;19951;-62
2022/08/24 00:56:03;;;;;;;;;;;26.90;79.40;;;;;;5053858;28;19932;-61
2022/08/24 00:58:31;;;;;;;;;;;27.20;81.10;;;;;;5052346;28;19925;-61
2022/08/24 01:00:57;;;;;;;;;;;27.30;81.10;;;;;;5052562;28;19958;-61
2022/08/24 01:03:23;;;;;;;;;;;27.00;80.90;;;;;;5051244;28;19933;-62
2022/08/24 01:05:49;;;;;;;;;;;27.30;81.00;;;;;;5035555;28;19929;-62
2022/08/24 01:08:15;;;;;;;;;;;27.00;80.80;;;;;;5053712;28;20386;-62
2022/08/24 01:10:49;;;;;;;;;;;26.70;80.60;;;;;;5035990;28;19932;-61
2022/08/24 01:13:14;;;;;;;;;;;26.90;79.60;;;;;;5067957;28;19925;-61
2022/08/24 01:15:41;;;;;;;;;;;27.00;80.60;;;;;;5052356;28;19932;-61
2022/08/24 01:20:58;;;;;;;;;;;27.00;81.00;;;;;;5053462;28;19986;-71
2022/08/24 01:23:40;;;;;;;;;;;26.80;81.60;;;;;;5051610;28;19931;-62
2022/08/24 01:26:06;;;;;;;;;;;27.10;79.70;;;;;;5052998;28;19959;-61
2022/08/24 01:28:31;;;;;;;;;;;27.00;80.90;;;;;;5053522;28;19960;-61
2022/08/24 01:30:57;;;;;;;;;;;27.00;80.70;;;;;;5052422;28;20452;-61
2022/08/24 01:33:24;;;;;;;;;;;27.10;80.80;;;;;;5035740;28;19948;-61
2022/08/24 01:35:52;;;;;;;;;;;26.90;80.90;;;;;;5052129;28;19964;-62
2022/08/24 01:38:18;;;;;;;;;;;26.90;80.90;;;;;;5052077;28;20033;-61
2022/08/24 01:40:47;;;;;;;;;;;26.70;80.40;;;;;;5053425;28;19928;-61
2022/08/24 01:43:13;;;;;;;;;;;27.20;79.70;;;;;;5053386;28;19925;-61
2022/08/24 01:45:40;;;;;;;;;;;26.90;80.70;;;;;;5066723;28;20315;-71
2022/08/24 01:48:05;;;;;;;;;;;26.90;80.80;;;;;;5055279;28;19947;-61
2022/08/24 01:50:31;;;;;;;;;;;27.10;80.80;;;;;;5056340;28;20011;-61
2022/08/24 01:52:57;;;;;;;;;;;26.80;80.70;;;;;;5056976;28;19925;-61
2022/08/24 01:55:24;;;;;;;;;;;27.00;80.80;;;;;;5055611;28;19979;-61
2022/08/24 01:57:49;;;;;;;;;;;26.90;80.80;;;;;;5055843;28;19982;-61
2022/08/24 02:00:15;;;;;;;;;;;26.70;80.40;;;;;;5055460;28;20278;-61
2022/08/24 02:02:41;;;;;;;;;;;26.80;80.50;;;;;;5056831;28;20425;-61
2022/08/24 02:05:07;;;;;;;;;;;27.00;80.80;;;;;;5055109;28;19936;-62
2022/08/24 02:07:32;;;;;;;;;;;27.00;80.80;;;;;;5055267;28;20023;-62
2022/08/24 02:09:58;;;;;;;;;;;26.90;80.60;;;;;;5056492;28;19983;-62
2022/08/24 02:12:24;;;;;;;;;;;26.70;80.60;;;;;;5056439;28;20023;-61
2022/08/24 02:14:50;;;;;;;;;;;26.90;80.50;;;;;;5056866;28;19947;-62
2022/08/24 02:17:15;;;;;;;;;;;27.00;80.80;;;;;;5055485;28;19931;-62
2022/08/24 02:19:42;;;;;;;;;;;26.80;80.40;;;;;;5055900;28;20375;-61
2022/08/24 02:22:07;;;;;;;;;;;26.80;80.60;;;;;;5056448;28;19932;-61
2022/08/24 02:24:33;;;;;;;;;;;27.10;80.90;;;;;;5056072;28;19929;-61
2022/08/24 02:26:59;;;;;;;;;;;26.90;80.70;;;;;;5037716;28;19931;-61
2022/08/24 02:29:25;;;;;;;;;;;26.80;80.80;;;;;;5055820;28;19995;-61
2022/08/24 02:31:50;;;;;;;;;;;26.70;80.60;;;;;;5037752;28;20359;-62
2022/08/24 02:34:16;;;;;;;;;;;26.80;80.70;;;;;;5055911;28;19951;-61
2022/08/24 02:36:41;;;;;;;;;;;26.60;80.40;;;;;;5054689;28;19921;-61
2022/08/24 02:39:07;;;;;;;;;;;26.80;80.80;;;;;;5037012;28;19928;-61
2022/08/24 02:41:33;;;;;;;;;;;26.90;80.80;;;;;;5055370;28;19931;-61
2022/08/24 02:43:59;;;;;;;;;;;26.80;80.90;;;;;;5038212;28;19921;-62
2022/08/24 02:46:25;;;;;;;;;;;26.60;80.50;;;;;;5055969;28;19925;-61
2022/08/24 02:48:51;;;;;;;;;;;26.90;80.90;;;;;;5055141;28;20317;-62
2022/08/24 02:51:37;;;;;;;;;;;26.90;80.60;;;;;;5055116;28;19939;-61
2022/08/24 02:54:04;;;;;;;;;;;27.00;81.10;;;;;;5055143;28;19932;-61
2022/08/24 02:56:29;;;;;;;;;;;26.70;81.20;;;;;;5055169;28;19924;-61
2022/08/24 02:58:56;;;;;;;;;;;26.90;80.60;;;;;;5054379;28;20019;-62
2022/08/24 03:01:21;;;;;;;;;;;26.60;80.70;;;;;;5055236;28;19931;-61
2022/08/24 03:03:47;;;;;;;;;;;26.90;80.70;;;;;;5055284;28;19928;-61
2022/08/24 03:06:13;;;;;;;;;;;26.90;80.60;;;;;;5055587;28;19925;-61
2022/08/24 03:08:38;;;;;;;;;;;26.70;80.60;;;;;;5055524;28;20392;-61
2022/08/24 03:11:04;;;;;;;;;;;27.00;80.10;;;;;;5054374;28;19925;-61
2022/08/24 03:13:30;;;;;;;;;;;26.90;80.80;;;;;;5055299;28;19994;-62
2022/08/24 03:15:56;;;;;;;;;;;26.80;80.70;;;;;;5053930;28;19975;-61
2022/08/24 03:18:22;;;;;;;;;;;26.90;81.00;;;;;;5055276;28;19920;-62
2022/08/24 03:20:48;;;;;;;;;;;26.80;80.80;;;;;;5054564;28;20016;-61
2022/08/24 03:23:14;;;;;;;;;;;26.80;80.90;;;;;;5037040;28;19931;-61
2022/08/24 03:25:40;;;;;;;;;;;26.80;81.00;;;;;;5055163;28;19970;-62
2022/08/24 03:28:06;;;;;;;;;;;26.70;80.80;;;;;;5055148;28;19948;-61
2022/08/24 03:30:31;;;;;;;;;;;26.80;80.80;;;;;;5054837;28;19994;-61
2022/08/24 03:32:57;;;;;;;;;;;26.80;81.30;;;;;;5052310;28;19925;-71
2022/08/24 03:35:23;;;;;;;;;;;26.70;80.60;;;;;;5054913;28;19925;-61
2022/08/24 03:37:49;;;;;;;;;;;26.70;80.70;;;;;;5054808;28;19925;-62
2022/08/24 03:40:15;;;;;;;;;;;26.70;81.00;;;;;;5054188;28;19925;-61
2022/08/24 03:42:40;;;;;;;;;;;26.50;80.60;;;;;;5052949;28;20034;-61
2022/08/24 03:45:06;;;;;;;;;;;26.40;80.50;;;;;;5054223;28;19925;-62
2022/08/24 03:47:32;;;;;;;;;;;26.80;80.50;;;;;;5054860;28;19978;-61
2022/08/24 03:49:58;;;;;;;;;;;26.80;80.70;;;;;;5054282;28;20317;-62
2022/08/24 03:52:23;;;;;;;;;;;26.70;80.90;;;;;;5054075;28;19929;-62
2022/08/24 03:54:49;;;;;;;;;;;26.60;80.70;;;;;;5054043;28;20366;-61
2022/08/24 03:57:14;;;;;;;;;;;26.80;80.90;;;;;;5054332;28;19925;-61
2022/08/24 03:59:40;;;;;;;;;;;26.90;80.80;;;;;;5054655;28;19925;-61
2022/08/24 04:02:06;;;;;;;;;;;26.50;80.80;;;;;;5053811;28;19935;-62
2022/08/24 04:04:31;;;;;;;;;;;26.40;80.70;;;;;;5052959;28;19964;-61
2022/08/24 04:06:57;;;;;;;;;;;26.60;80.80;;;;;;5054373;28;19925;-62
2022/08/24 04:09:23;;;;;;;;;;;26.60;80.90;;;;;;5054237;28;19929;-61
2022/08/24 04:11:49;;;;;;;;;;;26.60;80.90;;;;;;5053912;28;19929;-61
2022/08/24 04:14:15;;;;;;;;;;;26.80;81.10;;;;;;5053248;28;19932;-62
2022/08/24 04:16:40;;;;;;;;;;;26.50;80.80;;;;;;5053802;28;19925;-61
2022/08/24 04:19:06;;;;;;;;;;;26.60;80.90;;;;;;5054449;28;19932;-61
2022/08/24 04:21:32;;;;;;;;;;;26.50;80.60;;;;;;5053320;28;19978;-61
2022/08/24 04:23:58;;;;;;;;;;;26.50;81.10;;;;;;5054238;28;20440;-60
2022/08/24 04:26:24;;;;;;;;;;;26.60;80.80;;;;;;5053602;28;19928;-61
2022/08/24 04:28:50;;;;;;;;;;;26.60;81.10;;;;;;5053625;28;19932;-61
2022/08/24 04:31:17;;;;;;;;;;;26.60;80.90;;;;;;5053106;28;19929;-61
2022/08/24 04:33:43;;;;;;;;;;;26.70;81.10;;;;;;5054095;28;20332;-61
2022/08/24 04:36:08;;;;;;;;;;;26.60;81.20;;;;;;5053302;28;19925;-61
2022/08/24 04:38:34;;;;;;;;;;;26.40;80.80;;;;;;5053631;28;19967;-62
2022/08/24 04:41:00;;;;;;;;;;;26.80;81.00;;;;;;5053189;28;20268;-62
2022/08/24 04:43:26;;;;;;;;;;;26.70;81.20;;;;;;5068907;28;19929;-61
2022/08/24 04:45:52;;;;;;;;;;;26.60;80.40;;;;;;5053820;28;19970;-61
2022/08/24 04:48:17;;;;;;;;;;;26.40;80.90;;;;;;5053405;28;19929;-61
2022/08/24 04:50:43;;;;;;;;;;;26.70;80.90;;;;;;5053934;28;19921;-62
2022/08/24 04:53:09;;;;;;;;;;;26.90;81.30;;;;;;5053138;28;19925;-61
2022/08/24 04:55:45;;;;;;;;;;;26.90;81.40;;;;;;5036071;28;19924;-61
2022/08/24 04:58:12;;;;;;;;;;;26.70;79.80;;;;;;5035187;28;19924;-61
2022/08/24 05:00:37;;;;;;;;;;;26.60;81.10;;;;;;5053510;28;19931;-62
2022/08/24 05:03:03;;;;;;;;;;;26.70;81.00;;;;;;5052431;28;19921;-62
2022/08/24 05:05:29;;;;;;;;;;;26.90;80.90;;;;;;5053706;28;19932;-61
2022/08/24 05:07:54;;;;;;;;;;;26.40;80.70;;;;;;5053277;28;19925;-61
2022/08/24 05:10:21;;;;;;;;;;;26.50;80.70;;;;;;5053278;28;19924;-62
2022/08/24 05:12:47;;;;;;;;;;;26.80;81.10;;;;;;5052250;28;19925;-61
2022/08/24 05:15:12;;;;;;;;;;;26.80;80.90;;;;;;5052314;28;20142;-62
2022/08/24 05:17:40;;;;;;;;;;;26.70;81.00;;;;;;5053322;28;20015;-61
2022/08/24 05:20:08;;;;;;;;;;;26.60;80.70;;;;;;5052701;28;19928;-61
2022/08/24 05:22:33;;;;;;;;;;;27.00;81.00;;;;;;5054810;28;19929;-62
2022/08/24 05:24:59;;;;;;;;;;;26.80;80.90;;;;;;5055361;28;20286;-61
2022/08/24 05:27:25;;;;;;;;;;;26.90;80.90;;;;;;5056463;28;20332;-61
2022/08/24 05:29:53;;;;;;;;;;;26.80;80.60;;;;;;5056452;28;19924;-69
2022/08/24 05:32:19;;;;;;;;;;;26.90;79.70;;;;;;5057343;28;19932;-61
2022/08/24 05:34:45;;;;;;;;;;;26.70;80.30;;;;;;5055875;28;19925;-62
2022/08/24 05:37:10;;;;;;;;;;;26.80;80.70;;;;;;5056155;28;19925;-61
2022/08/24 05:39:36;;;;;;;;;;;27.10;80.50;;;;;;5057057;28;20019;-61
2022/08/24 05:42:02;;;;;;;;;;;27.20;80.60;;;;;;5057760;28;20008;-62
2022/08/24 05:44:30;;;;;;;;;;;27.10;80.50;;;;;;5056862;28;19924;-62
2022/08/24 05:46:57;;;;;;;;;;;27.20;80.90;;;;;;5056240;28;20290;-62
2022/08/24 05:49:25;;;;;;;;;;;27.00;81.00;;;;;;5056662;28;20417;-61
2022/08/24 05:51:51;;;;;;;;;;;26.40;81.10;;;;;;5038976;28;19974;-61
2022/08/24 05:54:17;;;;;;;;;;;27.00;81.60;;;;;;5056507;28;19925;-61
2022/08/24 05:56:43;;;;;;;;;;;26.70;81.50;;;;;;5055994;28;19925;-61
2022/08/24 05:59:09;;;;;;;;;;;26.60;81.60;;;;;;5037397;28;19925;-63
2022/08/24 06:01:35;;;;;;;;;;;26.40;81.70;;;;;;5055670;28;19925;-64
2022/08/24 06:04:01;;;;;;;;;;;26.50;82.20;;;;;;5055505;28;19929;-63
2022/08/24 06:06:27;;;;;;;;;;;26.40;82.30;;;;;;5055993;28;19925;-61
2022/08/24 06:08:54;;;;;;;;;;;26.50;82.60;;;;;;5055553;28;19924;-74
2022/08/24 06:11:23;;;;;;;;;;;26.50;83.40;;;;;;5056125;28;19925;-65
2022/08/24 06:13:50;;;;;;;;;;;26.40;82.00;;;;;;5056622;28;20294;-64
2022/08/24 06:16:16;;;;;;;;;;;26.30;83.30;;;;;;5055617;28;20387;-62
2022/08/24 06:18:42;;;;;;;;;;;26.10;83.10;;;;;;5055748;28;20012;-61
2022/08/24 06:21:08;;;;;;;;;;;26.30;83.50;;;;;;5056080;28;19925;-63
2022/08/24 06:23:34;;;;;;;;;;;26.40;83.90;;;;;;5056448;28;20023;-61
2022/08/24 06:28:44;;;;;;;;;;;26.10;82.90;;;;;;5055370;28;19924;-61
2022/08/24 06:31:09;;;;;;;;;;;26.30;84.00;;;;;;5055345;28;20451;-77
2022/08/24 06:33:35;;;;;;;;;;;26.60;84.40;;;;;;5055409;28;19924;-61
2022/08/24 06:36:01;;;;;;;;;;;26.50;84.40;;;;;;5055365;28;19925;-62
2022/08/24 06:38:26;;;;;;;;;;;26.50;84.40;;;;;;5055184;28;19970;-62
2022/08/24 06:40:52;;;;;;;;;;;26.50;84.70;;;;;;5054500;28;19931;-62
2022/08/24 06:43:18;;;;;;;;;;;26.60;84.70;;;;;;5070568;28;19925;-61
2022/08/24 06:45:43;;;;;;;;;;;26.50;84.60;;;;;;5037685;28;19924;-61
2022/08/24 06:48:09;;;;;;;;;;;26.70;84.60;;;;;;5055338;28;19924;-62
2022/08/24 06:50:34;;;;;;;;;;;26.70;84.70;;;;;;5054374;28;20290;-61
2022/08/24 06:53:00;;;;;;;;;;;26.80;84.80;;;;;;5055604;28;20440;-61
2022/08/24 06:55:27;;;;;;;;;;;26.90;84.80;;;;;;5055574;28;19925;-61
2022/08/24 06:57:52;;;;;;;;;;;27.00;84.40;;;;;;5054917;28;19924;-61
2022/08/24 07:00:18;;;;;;;;;;;27.10;85.00;;;;;;5037223;28;19932;-62
2022/08/24 07:02:44;;;;;;;;;;;27.10;84.40;;;;;;5055209;28;19931;-62
2022/08/24 07:05:10;;;;;;;;;;;27.30;84.60;;;;;;5054769;28;19929;-61
2022/08/24 07:07:35;;;;;;;;;;;27.50;85.10;;;;;;5053724;28;19982;-62
2022/08/24 07:10:01;;;;;;;;;;;27.50;84.90;;;;;;5055497;28;20015;-62
2022/08/24 07:12:30;;;;;;;;;;;27.30;85.20;;;;;;5055193;28;20340;-62
2022/08/24 07:14:55;;;;;;;;;;;27.70;84.60;;;;;;5054617;28;19929;-61
2022/08/24 07:17:21;;;;;;;;;;;27.50;85.70;;;;;;5054221;28;19932;-61
2022/08/24 07:19:47;;;;;;;;;;;27.30;85.80;;;;;;5054200;28;19952;-68
2022/08/24 07:22:13;;;;;;;;;;;27.60;86.10;;;;;;5037521;28;19951;-65
2022/08/24 07:24:39;;;;;;;;;;;27.60;86.80;;;;;;5055284;28;19932;-62
2022/08/24 07:27:05;;;;;;;;;;;27.60;86.50;;;;;;5055184;28;19924;-78
2022/08/24 07:29:31;;;;;;;;;;;27.80;86.30;;;;;;5052959;28;19925;-78
2022/08/24 07:31:56;;;;;;;;;;;27.70;86.00;;;;;;5055478;28;19932;-67
2022/08/24 07:34:22;;;;;;;;;;;27.80;85.50;;;;;;5070570;28;20314;-78
2022/08/24 07:36:49;;;;;;;;;;;27.80;85.20;;;;;;5055044;28;19932;-61
2022/08/24 07:39:15;;;;;;;;;;;27.90;85.90;;;;;;5052928;28;19925;-63
2022/08/24 07:41:41;;;;;;;;;;;28.00;85.30;;;;;;5054623;28;19924;-63
2022/08/24 07:44:07;;;;;;;;;;;28.10;85.20;;;;;;5054523;28;19925;-62
2022/08/24 07:46:33;;;;;;;;;;;28.10;84.60;;;;;;5054998;28;19979;-61
2022/08/24 07:48:58;;;;;;;;;;;28.30;84.30;;;;;;5053652;28;19925;-62
2022/08/24 07:51:26;;;;;;;;;;;28.30;83.90;;;;;;5054351;28;19940;-61
2022/08/24 07:53:52;;;;;;;;;;;28.50;84.50;;;;;;5054613;28;19925;-61
2022/08/24 07:56:17;;;;;;;;;;;28.40;83.90;;;;;;5052970;28;19931;-63
2022/08/24 07:58:43;;;;;;;;;;;28.90;83.70;;;;;;5054465;28;19921;-62
2022/08/24 08:01:09;;;;;;;;;;;28.60;83.00;;;;;;5053455;28;20382;-61
2022/08/24 08:03:35;;;;;;;;;;;28.50;82.70;;;;;;5053728;28;20016;-61
2022/08/24 08:06:02;;;;;;;;;;;28.90;82.40;;;;;;5053220;28;20019;-61
2022/08/24 08:08:27;;;;;;;;;;;28.70;82.00;;;;;;5050729;28;19932;-62
2022/08/24 08:10:53;;;;;;;;;;;28.90;81.30;;;;;;5052659;28;20294;-62
2022/08/24 08:13:19;;;;;;;;;;;28.90;81.10;;;;;;5053452;28;19995;-63
2022/08/24 08:15:45;;;;;;;;;;;29.10;81.20;;;;;;5052788;28;20294;-65
2022/08/24 08:18:10;;;;;;;;;;;29.00;81.20;;;;;;5068321;28;19928;-62
2022/08/24 08:20:36;;;;;;;;;;;29.20;81.00;;;;;;5054280;28;19925;-61
2022/08/24 08:25:47;;;;;;;;;;;29.00;79.40;;;;;;5054144;28;19987;-61
2022/08/24 08:28:13;;;;;;;;;;;29.10;80.30;;;;;;5052983;28;19928;-61
2022/08/24 08:30:40;;;;;;;;;;;29.50;79.80;;;;;;5053487;28;19925;-61
2022/08/24 08:33:06;;;;;;;;;;;29.40;80.00;;;;;;5052907;28;19939;-62
2022/08/24 08:35:32;;;;;;;;;;;29.30;79.50;;;;;;5052848;28;20294;-61
2022/08/24 08:37:58;;;;;;;;;;;29.50;79.60;;;;;;5053307;28;19968;-61
2022/08/24 08:40:28;;;;;;;;;;;29.50;79.20;;;;;;5038396;28;20015;-62
2022/08/24 08:43:04;;;;;;;;;;;29.50;79.20;;;;;;5035808;28;19948;-61
2022/08/24 08:45:34;;;;;;;;;;;29.60;77.90;;;;;;5053541;28;20078;-61
2022/08/24 08:48:19;;;;;;;;;;;29.70;77.90;;;;;;5051693;28;19960;-63
2022/08/24 08:50:57;;;;;;;;;;;29.60;77.60;;;;;;5052260;28;19925;-62
2022/08/24 08:53:29;;;;;;;;;;;29.70;77.40;;;;;;5053594;28;19932;-62
2022/08/24 08:56:13;;;;;;;;;;;29.80;77.20;;;;;;5053820;28;20294;-63
2022/08/24 08:58:49;;;;;;;;;;;29.50;76.70;;;;;;5057070;28;19924;-61
2022/08/24 09:01:18;;;;;;;;;;;29.70;77.00;;;;;;5055991;28;19931;-62
2022/08/24 09:03:50;;;;;;;;;;;29.70;78.40;;;;;;5071308;28;20382;-62
2022/08/24 09:06:42;;;;;;;;;;;29.80;77.10;;;;;;5057103;28;19929;-62
2022/08/24 09:09:23;;;;;;;;;;;29.70;76.90;;;;;;5054650;28;19925;-62
2022/08/24 09:12:01;;;;;;;;;;;29.70;76.90;;;;;;5056881;28;20006;-61
2022/08/24 09:14:39;;;;;;;;;;;29.70;77.00;;;;;;5045995;28;20283;-61
2022/08/24 09:17:07;;;;;;;;;;;29.70;76.80;;;;;;5057507;28;19925;-61
2022/08/24 09:19:56;;;;;;;;;;;29.90;76.90;;;;;;5057532;28;19925;-62
2022/08/24 09:22:22;;;;;;;;;;;29.70;76.70;;;;;;5072052;28;19976;-62
2022/08/24 09:24:53;;;;;;;;;;;29.90;77.20;;;;;;5051086;28;19968;-62
2022/08/24 09:27:31;;;;;;;;;;;29.80;76.10;;;;;;5054060;28;19925;-61
2022/08/24 09:30:17;;;;;;;;;;;29.50;75.80;;;;;;5054930;28;20070;-62
2022/08/24 09:32:58;;;;;;;;;;;29.60;75.80;;;;;;5056863;28;20374;-62
2022/08/24 09:35:30;;;;;;;;;;;29.90;76.00;;;;;;5071507;28;19932;-62
2022/08/24 09:38:14;;;;;;;;;;;29.80;77.50;;;;;;5055887;28;19982;-68
2022/08/24 09:40:50;;;;;;;;;;;29.70;76.00;;;;;;5053677;28;20379;-62
2022/08/24 09:43:25;;;;;;;;;;;29.80;76.00;;;;;;5055139;28;20386;-62
2022/08/24 09:45:54;;;;;;;;;;;29.50;75.90;;;;;;5054236;28;19936;-62
2022/08/24 09:48:38;;;;;;;;;;;29.80;75.70;;;;;;5056384;28;20361;-62
2022/08/24 09:51:22;;;;;;;;;;;29.80;75.60;;;;;;5056859;28;19929;-62
2022/08/24 09:53:53;;;;;;;;;;;29.80;75.90;;;;;;5056710;28;19971;-62
2022/08/24 09:56:31;;;;;;;;;;;29.70;75.70;;;;;;5055064;28;20286;-61
2022/08/24 09:59:12;;;;;;;;;;;29.50;75.50;;;;;;5056683;28;19928;-62
2022/08/24 10:01:41;;;;;;;;;;;29.70;75.50;;;;;;5056263;28;19960;-62
2022/08/24 10:04:14;;;;;;;;;;;29.60;75.40;;;;;;5056385;28;20020;-62
2022/08/24 10:06:39;;;;;;;;;;;29.80;75.60;;;;;;5054302;28;19925;-61
2022/08/24 10:09:08;;;;;;;;;;;29.80;76.40;;;;;;5056069;28;19935;-61
2022/08/24 10:11:37;;;;;;;;;;;29.80;75.40;;;;;;5038902;28;19975;-61
2022/08/24 10:14:06;;;;;;;;;;;29.70;75.30;;;;;;5056335;28;19927;-62
2022/08/24 10:16:55;;;;;;;;;;;29.90;75.40;;;;;;5055605;28;19929;-61
2022/08/24 10:19:36;;;;;;;;;;;29.80;75.40;;;;;;4995327;28;20418;-62
2022/08/24 10:22:06;;;;;;;;;;;30.00;75.50;;;;;;4978978;28;19973;-61
2022/08/24 10:24:39;;;;;;;;;;;29.70;76.60;;;;;;4994873;28;19925;-61
2022/08/24 10:27:08;;;;;;;;;;;29.90;75.20;;;;;;4976925;28;19930;-61
2022/08/24 10:29:33;;;;;;;;;;;29.80;76.20;;;;;;4993648;28;19926;-62
2022/08/24 10:32:18;;;;;;;;;;;29.90;76.20;;;;;;4990512;28;19925;-62
2022/08/24 10:35:04;;;;;;;;;;;29.90;75.20;;;;;;4988495;28;20312;-65
2022/08/24 10:37:48;;;;;;;;;;;30.00;75.30;;;;;;4994491;28;19926;-62
2022/08/24 10:40:30;;;;;;;;;;;29.90;75.40;;;;;;4993699;28;20332;-62
2022/08/24 10:43:32;;;;;;;;;;;29.70;75.30;;;;;;4994416;28;19930;-62
2022/08/24 10:45:59;;;;;;;;;;;29.80;75.40;;;;;;4994381;28;19980;-62
2022/08/24 10:48:30;;;;;;;;;;;29.80;76.70;;;;;;4994382;28;19933;-62
2022/08/24 10:51:02;;;;;;;;;;;29.90;75.70;;;;;;4994573;28;20357;-62
2022/08/24 10:53:28;;;;;;;;;;;29.90;75.70;;;;;;4994377;28;20016;-63
2022/08/24 10:56:05;;;;;;;;;;;29.90;76.90;;;;;;5013636;28;19925;-62
2022/08/24 10:58:49;;;;;;;;;;;30.00;76.00;;;;;;5055533;28;19925;-62
2022/08/24 11:01:18;;;;;;;;;;;29.60;75.60;;;;;;5055066;28;20321;-62
2022/08/24 11:04:04;;;;;;;;;;;29.80;75.90;;;;;;5055287;28;19968;-62
2022/08/24 11:06:37;;;;;;;;;;;30.00;77.50;;;;;;5054840;28;19925;-63
2022/08/24 11:09:05;;;;;;;;;;;30.10;76.20;;;;;;5054404;28;19932;-62
2022/08/24 11:11:32;;;;;;;;;;;29.90;77.50;;;;;;5070398;28;19925;-62
2022/08/24 11:14:00;;;;;;;;;;;30.00;77.60;;;;;;5055562;28;19925;-62
2022/08/24 11:16:27;;;;;;;;;;;29.90;77.50;;;;;;5055632;28;19951;-62
2022/08/24 11:18:53;;;;;;;;;;;29.90;77.50;;;;;;5070293;28;19925;-61
2022/08/24 11:21:20;;;;;;;;;;;30.30;77.80;;;;;;5069564;28;19932;-61
2022/08/24 11:23:45;;;;;;;;;;;29.80;77.50;;;;;;5053915;28;20354;-62
2022/08/24 11:26:18;;;;;;;;;;;30.30;77.20;;;;;;5070380;28;20019;-62
2022/08/24 11:28:44;;;;;;;;;;;30.00;77.70;;;;;;5055302;28;19932;-62
2022/08/24 11:31:18;;;;;;;;;;;30.10;77.70;;;;;;5070342;28;20318;-62
2022/08/24 11:33:48;;;;;;;;;;;29.80;77.40;;;;;;5055034;28;20306;-62
2022/08/24 11:36:15;;;;;;;;;;;30.00;77.60;;;;;;5054720;28;19920;-63
2022/08/24 11:38:41;;;;;;;;;;;30.20;77.70;;;;;;5054893;28;19968;-62
2022/08/24 11:41:09;;;;;;;;;;;30.20;77.40;;;;;;5036872;28;19971;-62
2022/08/24 11:43:37;;;;;;;;;;;30.10;77.60;;;;;;5054187;28;19932;-62
2022/08/24 11:46:21;;;;;;;;;;;30.30;76.20;;;;;;5054867;28;19987;-62
2022/08/24 11:48:50;;;;;;;;;;;30.20;76.70;;;;;;5054315;28;19925;-62
2022/08/24 11:51:24;;;;;;;;;;;30.00;76.00;;;;;;5054703;28;19925;-62
2022/08/24 11:54:02;;;;;;;;;;;30.40;76.30;;;;;;5070272;28;19925;-61
2022/08/24 11:56:49;;;;;;;;;;;30.30;76.20;;;;;;5054731;28;19931;-62
2022/08/24 11:59:33;;;;;;;;;;;30.30;77.60;;;;;;5053835;28;20389;-62
2022/08/24 12:02:02;;;;;;;;;;;30.40;76.20;;;;;;5054682;28;19931;-63
2022/08/24 12:04:34;;;;;;;;;;;30.40;77.60;;;;;;5052945;28;19931;-62
2022/08/24 12:07:00;;;;;;;;;;;30.40;76.20;;;;;;5053134;28;20011;-62
2022/08/24 12:09:46;;;;;;;;;;;30.50;77.20;;;;;;5068276;28;21596;-62
2022/08/24 12:12:23;;;;;;;;;;;30.30;76.00;;;;;;5054117;28;19924;-62
2022/08/24 12:14:53;;;;;;;;;;;30.20;77.10;;;;;;5053302;28;19994;-62
2022/08/24 12:17:19;;;;;;;;;;;30.30;77.40;;;;;;5054381;28;19960;-62
2022/08/24 12:19:49;;;;;;;;;;;30.40;77.00;;;;;;5053453;28;19928;-62
2022/08/24 12:22:14;;;;;;;;;;;30.50;76.20;;;;;;5053167;28;20008;-62
2022/08/24 12:24:50;;;;;;;;;;;30.20;77.70;;;;;;5054141;28;20387;-62
2022/08/24 12:27:27;;;;;;;;;;;30.40;77.50;;;;;;5069681;28;19971;-62
2022/08/24 12:30:11;;;;;;;;;;;30.50;76.10;;;;;;5069348;28;19925;-62
2022/08/24 12:32:37;;;;;;;;;;;30.60;76.20;;;;;;5032563;28;19925;-62
2022/08/24 12:35:13;;;;;;;;;;;30.80;77.30;;;;;;5034240;28;19921;-62
2022/08/24 12:37:47;;;;;;;;;;;30.40;76.00;;;;;;5060242;28;20365;-62
2022/08/24 12:40:25;;;;;;;;;;;30.50;75.90;;;;;;5053966;28;19921;-61
2022/08/24 12:42:53;;;;;;;;;;;30.60;76.00;;;;;;5051563;28;20406;-67
2022/08/24 12:45:19;;;;;;;;;;;30.60;77.30;;;;;;5052808;28;19968;-62
2022/08/24 12:47:53;;;;;;;;;;;30.60;77.40;;;;;;5036678;28;20015;-62
2022/08/24 12:50:48;;;;;;;;;;;30.40;75.90;;;;;;5052641;28;20007;-61
2022/08/24 12:53:21;;;;;;;;;;;30.70;76.10;;;;;;5039818;28;19950;-62
2022/08/24 12:56:05;;;;;;;;;;;30.70;76.00;;;;;;5053565;28;19929;-62
2022/08/24 12:58:43;;;;;;;;;;;30.50;75.90;;;;;;5053464;28;19932;-62
2022/08/24 13:01:08;;;;;;;;;;;30.30;75.80;;;;;;5053879;28;19925;-62
2022/08/24 13:03:36;;;;;;;;;;;30.50;76.90;;;;;;5068046;28;19924;-64
2022/08/24 13:06:03;;;;;;;;;;;30.40;77.30;;;;;;5053710;28;20279;-64
2022/08/24 13:08:36;;;;;;;;;;;30.40;77.20;;;;;;5068936;28;19925;-62
2022/08/24 13:11:12;;;;;;;;;;;30.60;76.10;;;;;;5052111;28;19931;-62
2022/08/24 13:13:58;;;;;;;;;;;30.70;76.10;;;;;;5052980;28;19925;-62
2022/08/24 13:16:44;;;;;;;;;;;30.60;77.50;;;;;;5052648;28;19991;-62
2022/08/24 13:19:15;;;;;;;;;;;30.40;75.90;;;;;;5053204;28;19925;-62
2022/08/24 13:21:43;;;;;;;;;;;30.20;75.70;;;;;;5053698;28;20019;-62
2022/08/24 13:24:26;;;;;;;;;;;30.30;77.20;;;;;;5053237;28;19925;-62
2022/08/24 13:27:10;;;;;;;;;;;30.30;75.80;;;;;;5052716;28;19931;-63
2022/08/24 13:29:36;;;;;;;;;;;30.50;75.90;;;;;;5053226;28;19924;-62
2022/08/24 13:32:02;;;;;;;;;;;30.60;77.30;;;;;;5053404;28;19932;-61
2022/08/24 13:34:35;;;;;;;;;;;30.50;77.10;;;;;;5053459;28;19924;-62
2022/08/24 13:37:00;;;;;;;;;;;30.70;76.20;;;;;;5053179;28;19925;-62
2022/08/24 13:39:44;;;;;;;;;;;30.30;77.10;;;;;;5052868;28;19932;-62
2022/08/24 13:42:29;;;;;;;;;;;30.70;76.10;;;;;;5053483;28;19978;-61
2022/08/24 13:45:13;;;;;;;;;;;30.70;76.20;;;;;;5057256;28;19924;-62
2022/08/24 13:47:57;;;;;;;;;;;30.70;76.20;;;;;;5056787;28;20023;-62
2022/08/24 13:50:31;;;;;;;;;;;30.40;76.00;;;;;;5056684;28;19950;-63
2022/08/24 13:52:57;;;;;;;;;;;30.60;76.20;;;;;;5057079;28;19940;-62
2022/08/24 13:55:31;;;;;;;;;;;30.60;77.10;;;;;;5039232;28;19925;-62
2022/08/24 13:58:03;;;;;;;;;;;30.60;76.20;;;;;;5072052;28;20421;-62
2022/08/24 14:00:35;;;;;;;;;;;30.50;76.00;;;;;;5056369;28;19924;-62
2022/08/24 14:03:22;;;;;;;;;;;30.50;76.00;;;;;;5056572;28;20026;-62
2022/08/24 14:06:08;;;;;;;;;;;30.60;76.10;;;;;;5016772;28;19925;-62
2022/08/24 14:09:00;;;;;;;;;;;30.60;77.40;;;;;;4975827;28;19976;-62
2022/08/24 14:11:31;;;;;;;;;;;30.40;76.00;;;;;;4975703;28;19930;-62
2022/08/24 14:14:17;;;;;;;;;;;30.50;76.00;;;;;;4975315;28;19977;-62
2022/08/24 14:19:27;;;;;;;;;;;30.50;76.20;;;;;;4975474;28;19926;-62
2022/08/24 14:21:56;;;;;;;;;;;30.20;76.90;;;;;;4976344;28;20326;-63
2022/08/24 14:24:26;;;;;;;;;;;30.40;76.00;;;;;;4958722;28;19926;-62
2022/08/24 14:27:03;;;;;;;;;;;30.60;76.00;;;;;;4943544;28;19978;-63
2022/08/24 14:29:30;;;;;;;;;;;30.50;75.90;;;;;;4943245;28;19938;-62
2022/08/24 14:31:59;;;;;;;;;;;30.40;77.20;;;;;;4975334;28;20029;-62
2022/08/24 14:34:30;;;;;;;;;;;30.40;76.00;;;;;;4974854;28;20009;-62
2022/08/24 14:37:17;;;;;;;;;;;30.50;76.10;;;;;;4975237;28;19926;-62
2022/08/24 14:39:49;;;;;;;;;;;30.40;76.10;;;;;;4975839;28;20025;-62
2022/08/24 14:42:15;;;;;;;;;;;30.30;76.00;;;;;;4974946;28;20013;-62